createdAt,value
2018-08-06T00:00:18.968Z,68.56
2018-08-06T00:02:47.614Z,68.49
2018-08-06T00:05:16.410Z,68.85
2018-08-06T00:07:45.060Z,69.17
2018-08-06T00:10:16.530Z,68.70
2018-08-06T00:12:45.219Z,68.92
2018-08-06T00:15:14.651Z,68.63
2018-08-06T00:17:43.371Z,68.80
2018-08-06T00:20:13.273Z,68.94
2018-08-06T00:22:42.477Z,68.85
2018-08-06T00:25:12.712Z,69.04
2018-08-06T00:27:42.197Z,68.76
2018-08-06T00:30:12.438Z,68.95
2018-08-06T00:32:42.055Z,69.51
2018-08-06T00:35:11.304Z,69.84
2018-08-06T00:37:40.067Z,69.61
2018-08-06T00:40:11.838Z,69.99
2018-08-06T00:42:41.214Z,70.01
2018-08-06T00:45:11.871Z,70.08
2018-08-06T00:47:40.617Z,69.46
2018-08-06T00:50:09.732Z,69.51
2018-08-06T00:52:38.789Z,69.75
2018-08-06T00:55:10.595Z,69.67
2018-08-06T00:57:39.691Z,69.71
2018-08-06T01:00:10.970Z,69.40
2018-08-06T01:02:39.595Z,70.11
2018-08-06T01:05:09.850Z,70.20
2018-08-06T01:07:38.858Z,69.56
2018-08-06T01:10:09.383Z,70.07
2018-08-06T01:12:38.770Z,70.23
2018-08-06T01:15:08.145Z,70.13
2018-08-06T01:17:36.982Z,70.63
2018-08-06T01:20:07.347Z,70.20
2018-08-06T01:22:36.022Z,70.99
2018-08-06T01:25:05.162Z,71.12
2018-08-06T01:27:34.453Z,71.12
2018-08-06T01:30:04.442Z,71.47
2018-08-06T01:32:33.098Z,71.17
2018-08-06T01:35:01.868Z,70.82
2018-08-06T01:37:30.553Z,70.59
2018-08-06T01:39:59.219Z,70.45
2018-08-06T01:42:27.851Z,71.22
2018-08-06T01:44:56.458Z,71.23
2018-08-06T01:47:25.089Z,70.93
2018-08-06T01:49:53.770Z,71.10
2018-08-06T01:52:22.419Z,71.94
2018-08-06T01:54:51.787Z,70.65
2018-08-06T01:57:21.480Z,70.62
2018-08-06T01:59:50.105Z,70.82
2018-08-06T02:02:18.801Z,70.91
2018-08-06T02:04:47.404Z,70.97
2018-08-06T02:07:16.127Z,71.13
2018-08-06T02:09:44.787Z,71.06
2018-08-06T02:12:13.446Z,71.40
2018-08-06T02:14:42.154Z,71.21
2018-08-06T02:17:10.846Z,71.51
2018-08-06T02:19:39.556Z,71.49
2018-08-06T02:22:08.264Z,71.18
2018-08-06T02:24:37.026Z,71.58
2018-08-06T02:27:06.252Z,71.35
2018-08-06T02:29:34.932Z,72.13
2018-08-06T02:32:03.700Z,72.01
2018-08-06T02:34:32.323Z,72.83
2018-08-06T02:37:01.148Z,72.39
2018-08-06T02:39:29.831Z,72.15
2018-08-06T02:41:58.579Z,72.34
2018-08-06T02:44:27.335Z,73.10
2018-08-06T02:46:56.066Z,72.36
2018-08-06T02:49:24.746Z,72.37
2018-08-06T02:51:53.453Z,72.67
2018-08-06T02:54:22.159Z,72.79
2018-08-06T02:56:50.940Z,73.20
2018-08-06T02:59:19.646Z,72.89
2018-08-06T03:01:48.356Z,73.25
2018-08-06T03:04:17.055Z,73.65
2018-08-06T03:06:45.750Z,73.95
2018-08-06T03:09:14.539Z,73.72
2018-08-06T03:11:43.222Z,73.97
2018-08-06T03:14:11.911Z,74.06
2018-08-06T03:16:40.591Z,73.51
2018-08-06T03:19:09.243Z,74.56
2018-08-06T03:21:37.960Z,74.24
2018-08-06T03:24:06.691Z,74.17
2018-08-06T03:26:35.351Z,74.02
2018-08-06T03:29:04.157Z,74.87
2018-08-06T03:31:32.795Z,74.47
2018-08-06T03:34:01.451Z,74.16
2018-08-06T03:36:30.143Z,74.15
2018-08-06T03:38:58.820Z,74.18
2018-08-06T03:41:27.534Z,73.91
2018-08-06T03:43:56.182Z,73.02
2018-08-06T03:46:25.006Z,73.18
2018-08-06T03:48:54.063Z,72.83
2018-08-06T03:51:22.757Z,72.26
2018-08-06T03:53:51.428Z,72.66
2018-08-06T03:56:20.814Z,72.51
2018-08-06T03:58:50.692Z,72.36
2018-08-06T04:01:19.503Z,72.58
2018-08-06T04:03:48.510Z,72.01
2018-08-06T04:06:17.714Z,71.62
2018-08-06T04:08:46.413Z,71.62
2018-08-06T04:11:15.083Z,72.50
2018-08-06T04:13:44.599Z,73.44
2018-08-06T04:16:13.494Z,73.17
2018-08-06T04:18:42.319Z,73.09
2018-08-06T04:21:10.964Z,73.57
2018-08-06T04:23:39.603Z,73.34
2018-08-06T04:26:08.378Z,73.54
2018-08-06T04:28:37.106Z,73.00
2018-08-06T04:31:05.786Z,73.04
2018-08-06T04:33:34.421Z,73.80
2018-08-06T04:36:03.102Z,73.24
2018-08-06T04:38:31.791Z,72.88
2018-08-06T04:41:00.415Z,72.95
2018-08-06T04:43:29.354Z,72.99
2018-08-06T04:45:58.080Z,72.44
2018-08-06T04:48:26.753Z,71.90
2018-08-06T04:50:55.440Z,71.32
2018-08-06T04:53:24.084Z,70.69
2018-08-06T04:55:52.763Z,70.88
2018-08-06T04:58:21.444Z,70.67
2018-08-06T05:00:50.171Z,70.67
2018-08-06T05:03:18.921Z,71.26
2018-08-06T05:05:47.578Z,70.91
2018-08-06T05:08:16.234Z,70.19
2018-08-06T05:10:44.890Z,70.40
2018-08-06T05:13:13.592Z,70.33
2018-08-06T05:15:42.227Z,69.92
2018-08-06T05:18:10.880Z,69.53
2018-08-06T05:20:39.486Z,69.81
2018-08-06T05:23:08.202Z,69.58
2018-08-06T05:25:36.868Z,69.54
2018-08-06T05:28:05.655Z,69.29
2018-08-06T05:30:34.392Z,69.02
2018-08-06T05:33:03.117Z,68.56
2018-08-06T05:35:31.810Z,68.19
2018-08-06T05:39:29.857Z,67.99
2018-08-06T05:41:58.600Z,67.79
2018-08-06T05:44:27.271Z,67.87
2018-08-06T05:46:55.985Z,67.92
2018-08-06T05:49:24.730Z,67.12
2018-08-06T05:51:53.367Z,66.88
2018-08-06T05:54:22.013Z,66.49
2018-08-06T05:56:50.675Z,66.15
2018-08-06T05:59:19.379Z,66.22
2018-08-06T06:01:48.019Z,66.21
2018-08-06T06:04:16.674Z,66.08
2018-08-06T06:06:45.464Z,65.85
2018-08-06T06:09:14.128Z,65.56
2018-08-06T06:11:42.836Z,65.73
2018-08-06T06:14:11.536Z,66.39
2018-08-06T06:16:40.305Z,66.07
2018-08-06T06:19:09.023Z,65.43
2018-08-06T06:21:37.704Z,66.01
2018-08-06T06:24:06.561Z,65.22
2018-08-06T06:26:35.263Z,64.90
2018-08-06T06:29:04.030Z,64.97
2018-08-06T06:31:32.763Z,63.34
2018-08-06T06:34:01.488Z,62.66
2018-08-06T06:36:30.243Z,63.35
2018-08-06T06:38:58.950Z,62.30
2018-08-06T06:41:27.670Z,61.53
2018-08-06T06:43:56.360Z,60.46
2018-08-06T06:46:25.026Z,61.11
2018-08-06T06:48:53.796Z,60.69
2018-08-06T06:51:22.483Z,60.42
2018-08-06T06:53:51.164Z,60.26
2018-08-06T06:56:19.953Z,60.21
2018-08-06T06:58:48.642Z,60.90
2018-08-06T07:01:17.320Z,60.42
2018-08-06T07:03:46.044Z,61.15
2018-08-06T07:06:14.786Z,59.96
2018-08-06T07:08:43.528Z,59.77
2018-08-06T07:11:12.152Z,60.21
2018-08-06T07:13:40.888Z,60.07
2018-08-06T07:16:10.021Z,58.43
2018-08-06T07:18:38.673Z,59.00
2018-08-06T07:21:07.430Z,58.28
2018-08-06T07:23:36.129Z,59.86
2018-08-06T07:26:04.925Z,58.57
2018-08-06T07:28:33.507Z,58.25
2018-08-06T07:31:02.189Z,58.03
2018-08-06T07:33:30.857Z,57.98
2018-08-06T07:35:59.673Z,58.44
2018-08-06T07:38:28.543Z,57.46
2018-08-06T07:40:57.175Z,57.87
2018-08-06T07:43:25.961Z,56.98
2018-08-06T07:45:54.620Z,56.93
2018-08-06T07:48:23.353Z,56.69
2018-08-06T07:50:52.399Z,56.31
2018-08-06T07:53:21.118Z,57.00
2018-08-06T07:55:49.832Z,54.63
2018-08-06T07:58:18.517Z,55.45
2018-08-06T08:00:47.153Z,55.37
2018-08-06T08:03:15.841Z,55.11
2018-08-06T08:05:44.570Z,53.83
2018-08-06T08:08:13.235Z,52.79
2018-08-06T08:10:41.934Z,54.86
2018-08-06T08:13:10.609Z,54.98
2018-08-06T08:15:39.388Z,53.82
2018-08-06T08:18:08.110Z,53.97
2018-08-06T08:20:36.854Z,53.30
2018-08-06T08:23:05.554Z,51.00
2018-08-06T08:25:34.231Z,51.90
2018-08-06T08:28:02.905Z,52.30
2018-08-06T08:30:31.653Z,52.96
2018-08-06T08:33:01.071Z,51.74
2018-08-06T08:35:32.190Z,51.46
2018-08-06T08:38:01.363Z,52.20
2018-08-06T08:40:30.258Z,51.44
2018-08-06T08:42:58.944Z,50.21
2018-08-06T08:45:27.702Z,49.98
2018-08-06T08:47:56.381Z,51.10
2018-08-06T08:50:25.158Z,49.78
2018-08-06T08:52:53.804Z,49.86
2018-08-06T08:55:22.478Z,48.73
2018-08-06T08:57:51.142Z,49.94
2018-08-06T09:00:21.766Z,49.23
2018-08-06T09:02:51.400Z,49.27
2018-08-06T09:05:20.546Z,50.33
2018-08-06T09:07:50.038Z,50.20
2018-08-06T09:10:19.288Z,48.74
2018-08-06T09:12:48.305Z,47.61
2018-08-06T09:15:25.702Z,47.33
2018-08-06T09:17:54.391Z,46.32
2018-08-06T09:20:23.910Z,47.33
2018-08-06T09:22:52.596Z,46.70
2018-08-06T09:25:21.289Z,47.54
2018-08-06T09:27:50.796Z,46.48
2018-08-06T09:30:21.762Z,47.00
2018-08-06T09:32:55.876Z,43.92
2018-08-06T09:35:24.545Z,44.80
2018-08-06T09:37:53.316Z,43.27
2018-08-06T09:40:22.961Z,43.90
2018-08-06T09:42:52.043Z,43.65
2018-08-06T09:45:21.754Z,41.40
2018-08-06T09:47:51.777Z,40.25
2018-08-06T09:50:21.089Z,39.22
2018-08-06T09:52:51.039Z,42.37
2018-08-06T09:55:23.721Z,41.73
2018-08-06T09:57:52.594Z,40.43
2018-08-06T10:00:27.438Z,40.54
2018-08-06T10:02:57.562Z,40.54
2018-08-06T10:05:26.943Z,40.69
2018-08-06T10:07:55.640Z,39.70
2018-08-06T10:10:24.394Z,40.26
2018-08-06T10:12:53.109Z,39.82
2018-08-06T10:15:22.405Z,41.19
2018-08-06T10:17:53.467Z,40.33
2018-08-06T10:20:23.731Z,40.11
2018-08-06T10:22:52.383Z,39.76
2018-08-06T10:25:21.184Z,39.41
2018-08-06T10:27:49.897Z,37.41
2018-08-06T10:30:22.953Z,38.33
2018-08-06T10:32:51.583Z,36.80
2018-08-06T10:35:20.867Z,36.12
2018-08-06T10:37:49.526Z,35.43
2018-08-06T10:40:24.112Z,37.58
2018-08-06T10:42:53.165Z,36.52
2018-08-06T10:45:23.090Z,36.36
2018-08-06T10:47:52.210Z,36.17
2018-08-06T10:50:20.865Z,36.33
2018-08-06T10:52:49.514Z,31.97
2018-08-06T10:55:18.170Z,31.61
2018-08-06T10:57:47.176Z,29.96
2018-08-06T11:00:19.822Z,30.63
2018-08-06T11:02:49.060Z,30.96
2018-08-06T11:05:18.495Z,30.46
2018-08-06T11:07:47.182Z,29.92
2018-08-06T11:10:18.325Z,30.75
2018-08-06T11:12:47.007Z,28.62
2018-08-06T11:15:17.726Z,29.38
2018-08-06T11:17:46.515Z,26.59
2018-08-06T11:20:16.114Z,25.44
2018-08-06T11:22:44.883Z,27.82
2018-08-06T11:25:15.368Z,26.27
2018-08-06T11:27:44.107Z,26.37
2018-08-06T11:30:15.725Z,26.02
2018-08-06T11:32:44.822Z,26.71
2018-08-06T11:35:14.181Z,25.83
2018-08-06T11:37:43.193Z,26.82
2018-08-06T11:40:13.021Z,25.50
2018-08-06T11:42:42.452Z,25.40
2018-08-06T11:45:13.390Z,24.95
2018-08-06T11:47:42.101Z,24.77
2018-08-06T11:50:11.470Z,23.76
2018-08-06T11:52:40.100Z,25.83
2018-08-06T11:55:09.301Z,25.78
2018-08-06T11:57:38.404Z,24.74
2018-08-06T12:00:23.840Z,26.10
2018-08-06T12:02:52.553Z,25.58
2018-08-06T12:05:21.330Z,27.37
2018-08-06T12:07:49.960Z,26.33
2018-08-06T12:10:19.430Z,23.81
2018-08-06T12:12:48.927Z,25.75
2018-08-06T12:15:17.745Z,25.05
2018-08-06T12:17:46.534Z,25.49
2018-08-06T12:20:17.186Z,24.46
2018-08-06T12:22:47.057Z,24.56
2018-08-06T12:25:16.615Z,25.24
2018-08-06T12:27:45.980Z,24.26
2018-08-06T12:30:16.962Z,23.62
2018-08-06T12:32:46.433Z,23.57
2018-08-06T12:35:15.766Z,23.99
2018-08-06T12:37:44.821Z,24.25
2018-08-06T12:40:14.660Z,24.28
2018-08-06T12:42:43.917Z,23.56
2018-08-06T12:45:13.572Z,24.84
2018-08-06T12:47:43.181Z,25.09
2018-08-06T12:50:12.979Z,23.69
2018-08-06T12:52:42.430Z,23.04
2018-08-06T12:55:12.613Z,21.98
2018-08-06T12:57:42.017Z,22.72
2018-08-06T13:00:14.193Z,22.61
2018-08-06T13:02:43.071Z,22.24
2018-08-06T13:05:12.064Z,22.51
2018-08-06T13:07:41.006Z,23.58
2018-08-06T13:10:09.787Z,23.05
2018-08-06T13:12:39.520Z,22.20
2018-08-06T13:15:10.047Z,24.22
2018-08-06T13:17:38.805Z,24.94
2018-08-06T13:20:08.072Z,21.76
2018-08-06T13:22:36.894Z,22.08
2018-08-06T13:25:07.548Z,20.92
2018-08-06T13:27:36.237Z,21.47
2018-08-06T13:30:12.237Z,21.75
2018-08-06T13:32:41.571Z,23.83
2018-08-06T13:35:10.638Z,21.44
2018-08-06T13:37:39.334Z,21.47
2018-08-06T13:40:08.772Z,21.74
2018-08-06T13:42:37.496Z,22.58
2018-08-06T13:45:07.833Z,22.03
2018-08-06T13:47:36.727Z,23.48
2018-08-06T13:50:06.199Z,23.01
2018-08-06T13:52:34.850Z,22.57
2018-08-06T13:55:03.600Z,22.96
2018-08-06T13:57:32.280Z,23.72
2018-08-06T14:00:01.013Z,21.81
2018-08-06T14:02:29.692Z,23.32
2018-08-06T14:04:58.394Z,23.14
2018-08-06T14:07:27.073Z,24.99
2018-08-06T14:09:55.706Z,24.49
2018-08-06T14:12:24.381Z,23.40
2018-08-06T14:14:53.095Z,22.47
2018-08-06T14:17:21.736Z,23.09
2018-08-06T14:19:50.415Z,24.58
2018-08-06T14:22:19.062Z,25.17
2018-08-06T14:24:47.713Z,25.05
2018-08-06T14:27:16.437Z,24.06
2018-08-06T14:29:45.082Z,23.85
2018-08-06T14:32:13.741Z,23.65
2018-08-06T14:34:42.462Z,23.45
2018-08-06T14:37:11.094Z,23.78
2018-08-06T14:39:39.754Z,23.40
2018-08-06T14:42:08.446Z,23.83
2018-08-06T14:44:37.083Z,23.27
2018-08-06T14:47:06.066Z,23.22
2018-08-06T14:49:34.702Z,24.62
2018-08-06T14:52:03.791Z,25.43
2018-08-06T14:54:32.486Z,25.45
2018-08-06T14:57:01.323Z,26.93
2018-08-06T14:59:30.140Z,27.54
2018-08-06T15:01:59.124Z,27.31
2018-08-06T15:04:27.802Z,27.47
2018-08-06T15:06:56.452Z,26.41
2018-08-06T15:09:25.163Z,26.33
2018-08-06T15:11:53.826Z,26.54
2018-08-06T15:14:22.508Z,27.01
2018-08-06T15:16:51.198Z,29.75
2018-08-06T15:19:19.853Z,29.94
2018-08-06T15:21:48.546Z,30.58
2018-08-06T15:24:17.321Z,28.97
2018-08-06T15:26:45.975Z,29.48
2018-08-06T15:29:14.672Z,29.13
2018-08-06T15:31:43.358Z,29.17
2018-08-06T15:34:12.655Z,28.85
2018-08-06T15:36:41.275Z,27.26
2018-08-06T15:39:13.387Z,30.18
2018-08-06T15:41:42.346Z,30.66
2018-08-06T15:44:11.069Z,30.92
2018-08-06T15:46:39.761Z,30.64
2018-08-06T15:49:08.432Z,31.08
2018-08-06T15:51:37.212Z,30.85
2018-08-06T15:54:05.791Z,31.19
2018-08-06T15:56:34.435Z,31.96
2018-08-06T15:59:03.092Z,32.36
2018-08-06T16:01:32.570Z,31.59
2018-08-06T16:04:01.257Z,32.15
2018-08-06T16:06:30.459Z,31.92
2018-08-06T16:08:59.187Z,33.72
2018-08-06T16:11:27.988Z,32.70
2018-08-06T16:13:56.661Z,33.18
2018-08-06T16:16:25.492Z,33.65
2018-08-06T16:18:54.128Z,33.56
2018-08-06T16:21:22.827Z,33.58
2018-08-06T16:23:52.073Z,33.65
2018-08-06T16:26:20.668Z,33.22
2018-08-06T16:28:49.341Z,34.16
2018-08-06T16:31:17.981Z,34.29
2018-08-06T16:33:46.602Z,35.80
2018-08-06T16:36:15.281Z,36.25
2018-08-06T16:38:45.137Z,37.29
2018-08-06T16:41:13.771Z,37.58
2018-08-06T16:43:42.450Z,37.19
2018-08-06T16:46:11.109Z,37.95
2018-08-06T16:48:40.016Z,37.57
2018-08-06T16:51:08.804Z,37.78
2018-08-06T16:53:37.586Z,38.52
2018-08-06T16:56:06.254Z,39.11
2018-08-06T16:58:34.893Z,39.04
2018-08-06T17:01:03.705Z,39.39
2018-08-06T17:03:32.382Z,39.28
2018-08-06T17:06:01.174Z,40.60
2018-08-06T17:08:29.866Z,40.24
2018-08-06T17:10:58.631Z,41.33
2018-08-06T17:13:27.293Z,40.72
2018-08-06T17:15:56.016Z,41.15
2018-08-06T17:18:24.736Z,41.06
2018-08-06T17:20:53.476Z,40.42
2018-08-06T17:23:22.102Z,40.49
2018-08-06T17:25:50.786Z,40.26
2018-08-06T17:28:19.488Z,41.21
2018-08-06T17:30:48.177Z,40.45
2018-08-06T17:33:16.893Z,40.99
2018-08-06T17:35:45.592Z,41.65
2018-08-06T17:38:14.225Z,43.23
2018-08-06T17:40:42.972Z,42.91
2018-08-06T17:43:11.595Z,41.93
2018-08-06T17:45:40.289Z,41.92
2018-08-06T17:48:08.916Z,41.79
2018-08-06T17:50:37.559Z,42.53
2018-08-06T17:53:06.928Z,43.87
2018-08-06T17:55:35.680Z,43.90
2018-08-06T17:58:04.328Z,43.55
2018-08-06T18:00:33.026Z,44.08
2018-08-06T18:03:01.679Z,44.08
2018-08-06T18:05:30.369Z,45.08
2018-08-06T18:07:59.040Z,44.82
2018-08-06T18:10:28.747Z,45.73
2018-08-06T18:12:57.443Z,45.34
2018-08-06T18:15:26.118Z,45.71
2018-08-06T18:17:54.771Z,46.18
2018-08-06T18:20:23.526Z,45.98
2018-08-06T18:22:52.188Z,46.37
2018-08-06T18:25:21.131Z,46.66
2018-08-06T18:27:50.995Z,46.24
2018-08-06T18:30:21.331Z,46.42
2018-08-06T18:32:50.426Z,46.88
2018-08-06T18:35:19.791Z,46.89
2018-08-06T18:37:48.610Z,48.22
2018-08-06T18:40:18.817Z,47.22
2018-08-06T18:42:47.523Z,48.27
2018-08-06T18:45:18.252Z,47.74
2018-08-06T18:47:47.943Z,48.27
2018-08-06T18:50:17.409Z,48.22
2018-08-06T18:52:47.116Z,48.46
2018-08-06T18:55:16.349Z,48.98
2018-08-06T18:57:45.519Z,48.72
2018-08-06T19:00:18.328Z,50.17
2018-08-06T19:02:47.083Z,49.94
2018-08-06T19:05:15.841Z,50.31
2018-08-06T19:07:44.660Z,49.69
2018-08-06T19:10:13.569Z,50.55
2018-08-06T19:12:47.531Z,50.09
2018-08-06T19:15:16.231Z,50.31
2018-08-06T19:17:50.007Z,50.72
2018-08-06T19:20:18.812Z,50.39
2018-08-06T19:22:48.732Z,50.57
2018-08-06T19:25:22.568Z,50.33
2018-08-06T19:27:51.310Z,49.82
2018-08-06T19:30:20.136Z,49.74
2018-08-06T19:32:48.885Z,49.90
2018-08-06T19:35:17.632Z,50.77
2018-08-06T19:37:48.507Z,50.52
2018-08-06T19:40:17.187Z,49.95
2018-08-06T19:42:51.191Z,49.14
2018-08-06T19:45:19.909Z,50.49
2018-08-06T19:47:48.862Z,51.16
2018-08-06T19:50:22.953Z,51.53
2018-08-06T19:52:51.638Z,50.66
2018-08-06T19:55:25.594Z,51.17
2018-08-06T19:57:54.308Z,50.85
2018-08-06T20:00:23.010Z,51.28
2018-08-06T20:02:52.058Z,51.28
2018-08-06T20:05:20.703Z,51.54
2018-08-06T20:07:49.524Z,52.75
2018-08-06T20:10:18.261Z,53.28
2018-08-06T20:12:47.003Z,53.27
2018-08-06T20:15:18.088Z,52.65
2018-08-06T20:17:47.067Z,53.42
2018-08-06T20:20:15.783Z,53.34
2018-08-06T20:22:44.736Z,53.50
2018-08-06T20:25:17.004Z,53.59
2018-08-06T20:27:46.515Z,53.09
2018-08-06T20:30:16.734Z,54.01
2018-08-06T20:32:45.468Z,54.21
2018-08-06T20:35:15.503Z,54.53
2018-08-06T20:37:44.179Z,54.68
2018-08-06T20:40:13.120Z,54.35
2018-08-06T20:42:43.178Z,54.29
2018-08-06T20:45:14.783Z,54.10
2018-08-06T20:47:43.905Z,55.46
2018-08-06T20:50:15.282Z,55.67
2018-08-06T20:52:44.280Z,55.70
2018-08-06T20:55:13.025Z,56.29
2018-08-06T20:57:42.346Z,56.98
2018-08-06T21:00:16.232Z,57.08
2018-08-06T21:02:45.492Z,57.28
2018-08-06T21:05:14.173Z,57.66
2018-08-06T21:07:42.829Z,57.87
2018-08-06T21:10:13.454Z,58.60
2018-08-06T21:12:42.210Z,58.31
2018-08-06T21:15:12.214Z,58.04
2018-08-06T21:17:41.124Z,58.57
2018-08-06T21:20:14.313Z,58.42
2018-08-06T21:22:44.429Z,58.72
2018-08-06T21:25:13.413Z,58.38
2018-08-06T21:27:43.239Z,59.71
2018-08-06T21:30:14.527Z,59.32
2018-08-06T21:32:47.736Z,58.30
2018-08-06T21:35:17.216Z,58.98
2018-08-06T21:37:46.489Z,59.67
2018-08-06T21:40:15.227Z,59.36
2018-08-06T21:42:43.898Z,59.46
2018-08-06T21:45:12.541Z,59.55
2018-08-06T21:47:41.203Z,60.66
2018-08-06T21:50:10.917Z,60.78
2018-08-06T21:52:39.542Z,60.27
2018-08-06T21:55:09.071Z,61.04
2018-08-06T21:57:37.764Z,61.76
2018-08-06T22:00:15.663Z,61.90
2018-08-06T22:02:44.298Z,62.20
2018-08-06T22:05:13.010Z,62.32
2018-08-06T22:07:41.683Z,62.01
2018-08-06T22:10:10.457Z,61.89
2018-08-06T22:12:39.127Z,62.17
2018-08-06T22:15:07.803Z,62.82
2018-08-06T22:17:36.512Z,62.07
2018-08-06T22:20:05.544Z,62.10
2018-08-06T22:22:34.259Z,62.45
2018-08-06T22:25:02.936Z,62.64
2018-08-06T22:27:31.590Z,62.74
2018-08-06T22:30:00.347Z,62.37
2018-08-06T22:32:28.963Z,62.22
2018-08-06T22:34:57.856Z,62.59
2018-08-06T22:37:26.542Z,62.88
2018-08-06T22:39:55.187Z,62.77
2018-08-06T22:42:23.831Z,63.11
2018-08-06T22:44:52.487Z,63.32
2018-08-06T22:47:21.137Z,63.48
2018-08-06T22:49:49.797Z,63.27
2018-08-06T22:52:18.480Z,63.62
2018-08-06T22:54:47.149Z,63.83
2018-08-06T23:00:16.152Z,64.16
2018-08-06T23:02:45.371Z,64.28
2018-08-06T23:05:15.899Z,64.25
2018-08-06T23:07:44.820Z,64.83
2018-08-06T23:10:15.062Z,64.61
2018-08-06T23:12:43.803Z,64.99
2018-08-06T23:15:15.739Z,64.85
2018-08-06T23:17:45.040Z,65.25
2018-08-06T23:20:13.753Z,65.08
2018-08-06T23:22:42.466Z,65.31
2018-08-06T23:25:11.250Z,65.10
2018-08-06T23:27:39.981Z,65.48
2018-08-06T23:30:12.754Z,65.85
2018-08-06T23:32:41.803Z,65.73
2018-08-06T23:35:11.968Z,66.10
2018-08-06T23:37:41.783Z,65.90
2018-08-06T23:40:11.709Z,65.53
2018-08-06T23:42:41.164Z,65.97
2018-08-06T23:45:11.159Z,66.18
2018-08-06T23:47:40.591Z,66.21
2018-08-06T23:50:11.412Z,66.72
2018-08-06T23:52:41.237Z,66.88
2018-08-06T23:55:11.030Z,66.67
2018-08-06T23:57:39.708Z,66.94
